Time;durP1;ratioP1;P1;durP2;ratioP2;P2;SDS_P1;SDS_P2;PMS_P1;PMS_P2;Temp;Humidity;BMP_temperature;BMP_pressure;BME280_temperature;BME280_humidity;BME280_pressure;Samples;Min_cycle;Max_cycle;Signal;HPM_P1;HPM_P2
2022/10/21 00:02:02;;;;;;;15.63;12.00;;;14.20;99.90;;;;;;5094025;28;20024;-83
2022/10/21 00:04:28;;;;;;;19.25;12.85;;;14.10;99.90;;;;;;5093998;28;20055;-83
2022/10/21 00:06:53;;;;;;;21.38;11.85;;;14.30;99.90;;;;;;5077403;28;20380;-82
2022/10/21 00:09:19;;;;;;;19.35;12.48;;;14.30;99.90;;;;;;5093789;28;20036;-83
2022/10/21 00:11:44;;;;;;;17.70;12.27;;;14.30;99.90;;;;;;5094588;28;20502;-83
2022/10/21 00:14:12;;;;;;;19.80;12.65;;;14.30;99.90;;;;;;5093899;28;20032;-82
2022/10/21 00:16:38;;;;;;;20.05;13.25;;;14.40;99.90;;;;;;5093791;28;20499;-82
2022/10/21 00:19:06;;;;;;;17.02;12.65;;;14.40;99.90;;;;;;5060336;28;20024;-82
2022/10/21 00:21:32;;;;;;;19.13;12.85;;;14.40;99.90;;;;;;5077153;28;20028;-80
2022/10/21 00:23:57;;;;;;;16.63;12.50;;;14.50;99.90;;;;;;5077081;28;20594;-80
2022/10/21 00:26:24;;;;;;;18.65;12.45;;;14.50;99.90;;;;;;5076560;28;20024;-80
2022/10/21 00:28:54;;;;;;;19.90;11.88;;;14.50;99.90;;;;;;5093565;28;20040;-80
2022/10/21 00:31:20;;;;;;;18.67;12.45;;;14.50;99.90;;;;;;5076529;28;20038;-80
2022/10/21 00:33:45;;;;;;;19.80;13.23;;;14.60;99.90;;;;;;5077499;28;20032;-80
2022/10/21 00:36:14;;;;;;;19.13;12.45;;;14.60;99.90;;;;;;5093377;28;20016;-80
2022/10/21 00:38:41;;;;;;;18.08;12.68;;;14.60;99.90;;;;;;5060625;28;20024;-79
2022/10/21 00:41:07;;;;;;;21.83;13.88;;;14.60;99.90;;;;;;5093591;28;20020;-80
2022/10/21 00:43:51;;;;;;;24.70;14.27;;;14.50;99.90;;;;;;5076393;28;20177;-80
2022/10/21 00:46:17;;;;;;;16.73;12.50;;;14.60;99.90;;;;;;5093507;28;20561;-80
2022/10/21 00:48:53;;;;;;;17.80;12.73;;;14.60;99.90;;;;;;5076723;28;20035;-80
2022/10/21 00:51:19;;;;;;;20.90;12.55;;;14.60;99.90;;;;;;5093036;28;20035;-79
2022/10/21 00:53:48;;;;;;;18.15;13.05;;;14.60;99.90;;;;;;5076102;28;20024;-79
2022/10/21 00:56:23;;;;;;;19.33;13.35;;;14.60;99.90;;;;;;5093037;28;20031;-79
2022/10/21 00:58:50;;;;;;;19.73;12.73;;;14.60;99.90;;;;;;5093309;28;20073;-80
2022/10/21 01:01:17;;;;;;;19.40;13.32;;;14.70;99.90;;;;;;5092973;28;20129;-80
2022/10/21 01:03:43;;;;;;;17.98;13.02;;;14.70;99.90;;;;;;5093007;28;20028;-80
2022/10/21 01:06:12;;;;;;;19.77;12.85;;;14.70;99.90;;;;;;5092611;28;20152;-79
2022/10/21 01:08:38;;;;;;;18.98;11.77;;;14.70;99.90;;;;;;5092789;28;20051;-80
2022/10/21 01:11:09;;;;;;;21.88;13.63;;;14.70;99.90;;;;;;5075992;28;20503;-79
2022/10/21 01:13:54;;;;;;;18.90;13.02;;;14.60;99.90;;;;;;5076422;28;20126;-80
2022/10/21 01:16:31;;;;;;;19.85;12.48;;;14.60;99.90;;;;;;5092661;28;20111;-79
2022/10/21 01:19:27;;;;;;;19.02;12.80;;;14.60;99.90;;;;;;5092709;28;20107;-80
2022/10/21 01:22:05;;;;;;;20.20;12.30;;;14.60;99.90;;;;;;5092546;28;20376;-80
2022/10/21 01:24:36;;;;;;;19.50;12.93;;;14.60;99.90;;;;;;5093036;28;20451;-80
2022/10/21 01:27:46;;;;;;;19.83;13.40;;;14.60;99.90;;;;;;5081832;28;20020;-80
2022/10/21 01:30:38;;;;;;;23.00;12.88;;;14.60;99.90;;;;;;5051397;28;20377;-80
2022/10/21 01:33:18;;;;;;;18.08;12.05;;;14.50;99.90;;;;;;5034448;28;20029;-80
2022/10/21 01:36:04;;;;;;;18.65;12.57;;;14.50;99.90;;;;;;5061687;28;20078;-80
2022/10/21 01:38:35;;;;;;;22.27;12.90;;;14.50;99.90;;;;;;5071693;28;20492;-80
2022/10/21 01:41:20;;;;;;;22.15;14.60;;;14.50;99.90;;;;;;5072112;28;20424;-80
2022/10/21 01:43:59;;;;;;;19.95;12.93;;;14.40;99.90;;;;;;5072120;28;20025;-79
2022/10/21 01:46:37;;;;;;;21.25;13.07;;;14.50;99.90;;;;;;5072416;28;20039;-80
2022/10/21 01:49:12;;;;;;;23.95;14.25;;;14.40;99.90;;;;;;5072079;28;20443;-79
2022/10/21 01:51:39;;;;;;;21.85;14.00;;;14.40;99.90;;;;;;5072029;28;20025;-79
2022/10/21 01:54:21;;;;;;;22.42;12.95;;;14.40;99.90;;;;;;5054944;28;20032;-79
2022/10/21 01:56:47;;;;;;;19.45;12.50;;;14.50;99.90;;;;;;5072009;28;20491;-79
2022/10/21 01:59:15;;;;;;;22.52;14.52;;;14.50;99.90;;;;;;5071957;28;20464;-80
2022/10/21 02:01:42;;;;;;;19.95;13.65;;;14.50;99.90;;;;;;5072007;28;20472;-80
2022/10/21 02:04:09;;;;;;;20.00;12.73;;;14.50;99.90;;;;;;5072534;28;20029;-79
2022/10/21 02:06:35;;;;;;;21.00;13.70;;;14.50;99.90;;;;;;5071971;28;20170;-80
2022/10/21 02:09:01;;;;;;;21.92;14.35;;;14.50;99.90;;;;;;5055164;28;20067;-79
2022/10/21 02:11:28;;;;;;;22.48;14.57;;;14.40;99.90;;;;;;5071768;28;20520;-79
2022/10/21 02:13:59;;;;;;;23.55;14.80;;;14.40;99.90;;;;;;5055085;28;20029;-79
2022/10/21 02:16:29;;;;;;;26.52;13.95;;;14.50;99.90;;;;;;5071698;28;20021;-79
2022/10/21 02:18:55;;;;;;;23.83;13.93;;;14.40;99.90;;;;;;5071675;28;20036;-79
2022/10/21 02:21:24;;;;;;;21.35;14.68;;;14.40;99.90;;;;;;5055329;28;20033;-79
2022/10/21 02:23:53;;;;;;;25.42;15.30;;;14.40;99.90;;;;;;5071651;28;20031;-80
2022/10/21 02:26:24;;;;;;;24.98;14.80;;;14.30;99.90;;;;;;5072926;28;20460;-79
2022/10/21 02:28:52;;;;;;;22.02;14.40;;;14.30;99.90;;;;;;5071559;28;20029;-80
2022/10/21 02:31:28;;;;;;;26.58;15.27;;;14.20;99.90;;;;;;5071880;28;20021;-79
2022/10/21 02:34:03;;;;;;;24.27;15.60;;;14.20;99.90;;;;;;5073283;28;20036;-79
2022/10/21 02:36:50;;;;;;;25.33;15.65;;;14.20;99.90;;;;;;5075458;28;20032;-79
2022/10/21 02:39:25;;;;;;;26.95;15.25;;;14.20;99.90;;;;;;5075267;28;20119;-80
2022/10/21 02:41:53;;;;;;;24.38;14.88;;;14.20;99.90;;;;;;5075371;28;20025;-80
2022/10/21 02:44:18;;;;;;;22.92;14.77;;;14.10;99.90;;;;;;5075276;28;20411;-79
2022/10/21 02:46:46;;;;;;;27.70;16.38;;;14.00;99.90;;;;;;5058597;28;20039;-79
2022/10/21 02:49:12;;;;;;;25.92;15.35;;;14.10;99.90;;;;;;5075200;28;20027;-79
2022/10/21 02:51:40;;;;;;;27.75;16.67;;;14.00;99.90;;;;;;5058433;28;20028;-79
2022/10/21 02:54:05;;;;;;;25.40;17.00;;;14.00;99.90;;;;;;5058432;28;20491;-80
2022/10/21 02:56:31;;;;;;;25.40;16.63;;;14.00;99.90;;;;;;5075178;28;20025;-80
2022/10/21 02:58:57;;;;;;;25.30;17.20;;;14.00;99.90;;;;;;5058424;28;20032;-79
2022/10/21 03:01:22;;;;;;;24.75;15.77;;;14.00;99.90;;;;;;5074909;28;20055;-80
2022/10/21 03:03:48;;;;;;;28.80;17.65;;;14.00;99.90;;;;;;5058139;28;20040;-80
2022/10/21 03:06:14;;;;;;;28.77;16.77;;;13.90;99.90;;;;;;5058234;28;20149;-79
2022/10/21 03:08:39;;;;;;;25.88;16.60;;;13.90;99.90;;;;;;5074822;28;20025;-80
2022/10/21 03:11:05;;;;;;;31.15;17.02;;;13.90;99.90;;;;;;5075015;28;20385;-80
2022/10/21 03:13:31;;;;;;;27.55;17.48;;;13.90;99.90;;;;;;5074506;28;20455;-80
2022/10/21 03:15:56;;;;;;;29.30;16.48;;;13.90;99.90;;;;;;5057809;28;20431;-80
2022/10/21 03:18:22;;;;;;;24.38;16.65;;;13.80;99.90;;;;;;5057819;28;20425;-80
2022/10/21 03:20:49;;;;;;;25.38;15.98;;;13.80;99.90;;;;;;5057834;28;20465;-80
2022/10/21 03:23:16;;;;;;;30.27;16.25;;;13.80;99.90;;;;;;5090108;28;20445;-79
2022/10/21 03:25:42;;;;;;;25.73;17.17;;;13.70;99.90;;;;;;5078004;28;20063;-80
2022/10/21 03:28:08;;;;;;;31.90;17.45;;;13.80;99.90;;;;;;5094608;28;20477;-80
2022/10/21 03:30:34;;;;;;;27.10;16.40;;;13.80;99.90;;;;;;5061342;28;20119;-79
2022/10/21 03:33:00;;;;;;;27.83;16.95;;;13.70;99.90;;;;;;5077741;28;20124;-80
2022/10/21 03:35:26;;;;;;;27.65;16.60;;;13.70;99.90;;;;;;5095281;28;20061;-80
2022/10/21 03:37:52;;;;;;;23.88;16.38;;;13.70;99.90;;;;;;5094507;28;20020;-80
2022/10/21 03:40:18;;;;;;;26.38;16.48;;;13.70;99.90;;;;;;5094494;28;20384;-79
2022/10/21 03:42:44;;;;;;;23.08;15.52;;;13.60;99.90;;;;;;5094599;28;20036;-80
2022/10/21 03:45:10;;;;;;;23.80;16.00;;;13.60;99.90;;;;;;5093155;28;20039;-79
2022/10/21 03:47:36;;;;;;;28.27;16.15;;;13.60;99.90;;;;;;5094293;28;20024;-80
2022/10/21 03:50:02;;;;;;;26.30;15.75;;;13.60;99.90;;;;;;5094222;28;20030;-80
2022/10/21 03:52:28;;;;;;;26.05;17.13;;;13.60;99.90;;;;;;5077435;28;20043;-79
2022/10/21 03:54:53;;;;;;;27.13;15.48;;;13.50;99.90;;;;;;5060768;28;20024;-80
2022/10/21 03:57:19;;;;;;;23.70;16.15;;;13.50;99.90;;;;;;5077319;28;20036;-80
2022/10/21 03:59:45;;;;;;;24.80;15.38;;;13.50;99.90;;;;;;5077727;28;20039;-80
2022/10/21 04:02:10;;;;;;;25.55;16.00;;;13.50;99.90;;;;;;5061061;28;20077;-80
2022/10/21 04:04:36;;;;;;;26.73;15.43;;;13.40;99.90;;;;;;5094135;28;20036;-79
2022/10/21 04:07:02;;;;;;;27.50;15.82;;;13.40;99.90;;;;;;5093981;28;20448;-79
2022/10/21 04:09:28;;;;;;;25.10;15.75;;;13.40;99.90;;;;;;5077076;28;20069;-79
2022/10/21 04:11:53;;;;;;;26.05;15.98;;;13.40;99.90;;;;;;5060198;28;20055;-80
2022/10/21 04:14:19;;;;;;;24.90;15.15;;;13.40;99.90;;;;;;5077304;28;20032;-80
2022/10/21 04:16:44;;;;;;;31.27;15.50;;;13.40;99.90;;;;;;5076755;28;20114;-79
2022/10/21 04:19:18;;;;;;;26.58;15.13;;;13.40;99.90;;;;;;5076772;28;20022;-80
2022/10/21 04:21:45;;;;;;;21.20;13.77;;;13.40;99.90;;;;;;5093695;28;20069;-79
2022/10/21 04:24:11;;;;;;;25.38;15.30;;;13.30;99.90;;;;;;5093679;28;20020;-80
2022/10/21 04:26:37;;;;;;;24.77;15.57;;;13.30;99.90;;;;;;5093658;28;20028;-81
2022/10/21 04:29:03;;;;;;;26.85;17.30;;;13.30;99.90;;;;;;5076806;28;20032;-81
2022/10/21 04:31:29;;;;;;;21.45;15.45;;;13.30;99.90;;;;;;5060376;28;20032;-81
2022/10/21 04:33:55;;;;;;;28.08;15.95;;;13.30;99.90;;;;;;5093872;28;20069;-82
2022/10/21 04:36:20;;;;;;;26.80;15.55;;;13.30;99.90;;;;;;5093595;28;20103;-81
2022/10/21 04:38:46;;;;;;;22.35;14.18;;;13.30;99.90;;;;;;5076543;28;20022;-81
2022/10/21 04:41:11;;;;;;;21.27;14.63;;;13.30;99.90;;;;;;5059896;28;20017;-81
2022/10/21 04:43:37;;;;;;;21.63;14.05;;;13.20;99.90;;;;;;5093370;28;20024;-81
2022/10/21 04:46:03;;;;;;;23.35;14.40;;;13.20;99.90;;;;;;5059769;28;20395;-81
2022/10/21 04:48:29;;;;;;;21.95;14.57;;;13.20;99.90;;;;;;5093079;28;20024;-82
2022/10/21 04:50:55;;;;;;;24.10;14.18;;;13.20;99.90;;;;;;5093070;28;20026;-81
2022/10/21 04:53:22;;;;;;;24.05;14.43;;;13.20;99.90;;;;;;5093003;28;20098;-82
2022/10/21 04:55:52;;;;;;;22.27;14.60;;;13.20;99.90;;;;;;5075941;28;20025;-82
2022/10/21 04:58:18;;;;;;;21.55;14.13;;;13.20;99.90;;;;;;5093058;28;20073;-82
2022/10/21 05:00:44;;;;;;;24.58;14.98;;;13.10;99.90;;;;;;5059762;28;20016;-81
2022/10/21 05:03:10;;;;;;;21.48;13.35;;;13.10;99.90;;;;;;5075996;28;20536;-81
2022/10/21 05:05:35;;;;;;;20.40;14.57;;;13.10;99.90;;;;;;5092793;28;20024;-81
2022/10/21 05:08:01;;;;;;;21.92;14.88;;;13.10;99.90;;;;;;5059351;28;20112;-81
2022/10/21 05:10:29;;;;;;;23.00;14.52;;;13.10;99.90;;;;;;5059567;28;20177;-82
2022/10/21 05:12:58;;;;;;;21.55;14.32;;;13.00;99.90;;;;;;5059683;28;20046;-82
2022/10/21 05:15:24;;;;;;;22.42;13.07;;;13.00;99.90;;;;;;5092700;28;20016;-81
2022/10/21 05:17:51;;;;;;;24.73;14.15;;;13.00;99.90;;;;;;5092588;28;20028;-82
2022/10/21 05:20:17;;;;;;;22.88;14.07;;;13.00;99.90;;;;;;5075921;28;20078;-82
2022/10/21 05:22:42;;;;;;;22.73;15.15;;;12.90;99.90;;;;;;5075816;28;20055;-81
2022/10/21 05:25:09;;;;;;;25.40;13.55;;;13.00;99.90;;;;;;5076064;28;20024;-81
2022/10/21 05:27:34;;;;;;;22.08;14.02;;;12.90;99.90;;;;;;5092484;28;20031;-81
2022/10/21 05:30:00;;;;;;;23.08;14.82;;;12.90;99.90;;;;;;5075735;28;20482;-81
2022/10/21 05:32:26;;;;;;;21.30;13.55;;;12.90;99.90;;;;;;5076157;28;20038;-81
2022/10/21 05:34:52;;;;;;;22.23;14.43;;;12.90;99.90;;;;;;5075808;28;20031;-81
2022/10/21 05:37:17;;;;;;;23.10;14.82;;;13.00;99.90;;;;;;5075569;28;20537;-81
2022/10/21 05:39:43;;;;;;;23.55;14.40;;;12.80;99.90;;;;;;5090507;28;20016;-81
2022/10/21 05:42:09;;;;;;;23.98;15.55;;;12.80;99.90;;;;;;5046898;28;20012;-82
2022/10/21 05:44:34;;;;;;;24.13;14.77;;;12.80;99.90;;;;;;5082082;28;20031;-81
2022/10/21 05:47:03;;;;;;;23.80;14.23;;;12.80;99.90;;;;;;5050893;28;20104;-81
2022/10/21 05:49:29;;;;;;;21.27;14.05;;;12.80;99.90;;;;;;5086518;28;20027;-81
2022/10/21 05:51:54;;;;;;;20.75;14.07;;;12.80;99.90;;;;;;5063895;28;20104;-81
2022/10/21 05:54:20;;;;;;;23.70;13.30;;;12.80;99.90;;;;;;5049879;28;20021;-81
2022/10/21 05:56:47;;;;;;;23.23;13.98;;;12.80;99.90;;;;;;5083168;28;20483;-80
2022/10/21 05:59:12;;;;;;;25.33;13.25;;;12.80;99.90;;;;;;5072131;28;20016;-80
2022/10/21 06:01:39;;;;;;;23.30;14.60;;;12.70;99.90;;;;;;5064984;28;20020;-81
2022/10/21 06:04:05;;;;;;;25.77;15.93;;;12.70;99.90;;;;;;5070312;28;20027;-81
2022/10/21 06:06:31;;;;;;;26.73;16.85;;;12.60;99.90;;;;;;5092089;28;20035;-81
2022/10/21 06:08:57;;;;;;;22.95;14.40;;;12.70;99.90;;;;;;5078227;28;20123;-81
2022/10/21 06:11:23;;;;;;;25.63;15.65;;;12.80;99.90;;;;;;5059042;28;20504;-81
2022/10/21 06:13:49;;;;;;;25.27;13.65;;;12.70;99.90;;;;;;5091273;28;20028;-80
2022/10/21 06:16:15;;;;;;;21.55;14.02;;;12.70;99.90;;;;;;5090688;28;20112;-77
2022/10/21 06:18:41;;;;;;;23.70;14.63;;;12.70;99.90;;;;;;5088787;28;20058;-77
2022/10/21 06:21:07;;;;;;;26.25;15.23;;;12.70;99.90;;;;;;5066908;28;20081;-77
2022/10/21 06:23:33;;;;;;;21.48;13.50;;;12.70;99.90;;;;;;5087528;28;20520;-77
2022/10/21 06:26:17;;;;;;;21.38;14.57;;;12.70;99.90;;;;;;5070293;28;20108;-77
2022/10/21 06:28:43;;;;;;;28.77;14.50;;;12.70;99.90;;;;;;5088494;28;20112;-81
2022/10/21 06:31:13;;;;;;;23.50;13.68;;;12.70;99.90;;;;;;5090746;28;20055;-80
2022/10/21 06:33:39;;;;;;;23.45;12.98;;;12.70;99.90;;;;;;5084519;28;20020;-81
2022/10/21 06:36:04;;;;;;;23.42;13.98;;;12.70;99.90;;;;;;5077199;28;20012;-82
2022/10/21 06:38:31;;;;;;;23.20;14.40;;;12.70;99.90;;;;;;5065693;28;20098;-80
2022/10/21 06:41:03;;;;;;;21.60;14.32;;;12.70;99.90;;;;;;5095623;28;20024;-81
2022/10/21 06:43:28;;;;;;;21.00;13.77;;;12.70;99.90;;;;;;5095516;28;20031;-80
2022/10/21 06:46:09;;;;;;;21.92;13.30;;;12.70;99.90;;;;;;5078932;28;20020;-81
2022/10/21 06:48:35;;;;;;;21.45;12.65;;;12.70;99.90;;;;;;5082600;28;20077;-80
2022/10/21 06:51:09;;;;;;;24.25;13.60;;;12.80;99.90;;;;;;5078178;28;20123;-80
2022/10/21 06:53:35;;;;;;;;;;;12.80;99.90;;;;;;5096437;28;20358;-80
2022/10/21 06:56:03;;;;;;;18.10;10.82;;;12.80;99.90;;;;;;5095295;28;19907;-81
2022/10/21 06:58:30;;;;;;;20.40;12.30;;;12.80;99.90;;;;;;5095180;28;20024;-81
2022/10/21 07:00:55;;;;;;;21.23;13.18;;;12.90;99.90;;;;;;5052837;28;20021;-80
2022/10/21 07:03:21;;;;;;;24.00;12.95;;;12.90;99.90;;;;;;5074433;28;20024;-81
2022/10/21 07:05:47;;;;;;;22.88;11.98;;;13.00;99.90;;;;;;5061097;28;20506;-81
2022/10/21 07:08:13;;;;;;;19.55;13.07;;;13.00;99.90;;;;;;5095272;28;20472;-81
2022/10/21 07:10:41;;;;;;;21.17;11.98;;;13.10;99.90;;;;;;5077487;28;20036;-81
2022/10/21 07:13:07;;;;;;;19.67;11.48;;;13.10;99.90;;;;;;5078504;28;20432;-81
2022/10/21 07:15:32;;;;;;;19.05;11.68;;;13.10;99.90;;;;;;5082826;28;20021;-81
2022/10/21 07:17:59;;;;;;;19.90;12.00;;;13.10;99.90;;;;;;5057946;28;20025;-81
2022/10/21 07:20:26;;;;;;;20.23;12.30;;;13.20;99.90;;;;;;5057939;28;20029;-81
2022/10/21 07:22:51;;;;;;;22.55;12.27;;;13.20;99.90;;;;;;5091878;28;20527;-81
2022/10/21 07:25:18;;;;;;;23.42;12.75;;;13.30;99.90;;;;;;5077990;28;20032;-81
2022/10/21 07:27:43;;;;;;;20.83;11.65;;;13.30;99.90;;;;;;5074682;28;20033;-80
2022/10/21 07:30:09;;;;;;;20.90;11.68;;;13.40;99.90;;;;;;5057821;28;20035;-81
2022/10/21 07:32:35;;;;;;;18.73;12.18;;;13.40;99.90;;;;;;5074817;28;20032;-81
2022/10/21 07:35:01;;;;;;;18.95;11.40;;;13.50;99.90;;;;;;5074459;28;20029;-81
2022/10/21 07:37:27;;;;;;;16.67;11.02;;;13.50;99.90;;;;;;5071636;28;20102;-81
2022/10/21 07:39:53;;;;;;;18.73;10.55;;;13.50;99.90;;;;;;5078249;28;20024;-81
2022/10/21 07:42:20;;;;;;;18.92;10.48;;;13.60;99.90;;;;;;5083250;28;20483;-81
2022/10/21 07:44:48;;;;;;;18.55;11.07;;;13.70;99.90;;;;;;5082516;28;20037;-81
2022/10/21 07:47:14;;;;;;;15.38;10.45;;;13.80;99.90;;;;;;5057731;28;20483;-84
2022/10/21 07:49:40;;;;;;;18.60;9.93;;;13.80;99.90;;;;;;5061584;28;20119;-84
2022/10/21 07:52:05;;;;;;;17.80;8.90;;;13.90;99.90;;;;;;5077515;28;20028;-84
2022/10/21 07:54:31;;;;;;;16.88;8.52;;;13.90;99.90;;;;;;5077510;28;20028;-84
2022/10/21 07:56:57;;;;;;;14.65;9.07;;;14.00;99.90;;;;;;5077768;28;20028;-84
2022/10/21 07:59:23;;;;;;;15.40;8.93;;;14.10;99.90;;;;;;5094529;28;20020;-85
2022/10/21 08:01:49;;;;;;;14.05;8.73;;;14.10;99.90;;;;;;5078098;28;20158;-85
2022/10/21 08:04:18;;;;;;;15.00;8.98;;;14.20;99.90;;;;;;5094434;28;20024;-84
2022/10/21 08:06:45;;;;;;;15.75;9.05;;;14.30;99.90;;;;;;5094419;28;20162;-85
2022/10/21 08:09:12;;;;;;;13.88;8.48;;;14.30;99.90;;;;;;5077476;28;20039;-85
2022/10/21 08:11:37;;;;;;;13.07;8.82;;;14.40;99.90;;;;;;5077684;28;20091;-85
2022/10/21 08:14:09;;;;;;;15.27;8.77;;;14.40;99.90;;;;;;5094429;28;20036;-86
2022/10/21 08:16:35;;;;;;;15.13;8.43;;;14.50;99.90;;;;;;5077072;28;20058;-85
2022/10/21 08:19:02;;;;;;;13.63;9.25;;;14.60;99.90;;;;;;5094186;28;20031;-85
2022/10/21 08:21:30;;;;;;;15.32;8.65;;;14.60;99.90;;;;;;5094239;28;20448;-85
2022/10/21 08:23:56;;;;;;;10.95;8.05;;;14.70;99.90;;;;;;5093663;28;20028;-84
2022/10/21 08:26:22;;;;;;;17.10;8.30;;;14.70;99.90;;;;;;5094324;28;20031;-86
2022/10/21 08:28:48;;;;;;;15.10;8.77;;;14.80;99.90;;;;;;5094039;28;20115;-85
2022/10/21 08:31:19;;;;;;;10.75;7.55;;;14.80;99.90;;;;;;5075895;28;20028;-84
2022/10/21 08:33:45;;;;;;;16.02;9.05;;;14.90;99.90;;;;;;5073300;28;20473;-85
2022/10/21 08:36:17;;;;;;;15.90;8.93;;;15.00;99.90;;;;;;5073063;28;20017;-85
2022/10/21 08:38:43;;;;;;;14.90;8.07;;;15.00;99.90;;;;;;5073605;28;20389;-85
2022/10/21 08:41:29;;;;;;;16.00;8.07;;;15.00;99.90;;;;;;5056782;28;20021;-85
2022/10/21 08:44:26;;;;;;;13.30;7.65;;;15.20;99.90;;;;;;5073842;28;20035;-85
2022/10/21 08:47:00;;;;;;;12.20;7.30;;;15.20;99.90;;;;;;5073189;28;20021;-85
2022/10/21 08:49:33;;;;;;;;;;;15.30;99.90;;;;;;5074758;28;20059;-84
2022/10/21 08:52:10;;;;;;;9.13;6.28;;;15.30;99.90;;;;;;5074714;28;19904;-84
2022/10/21 08:55:01;;;;;;;16.73;6.90;;;15.40;99.90;;;;;;5073720;28;20117;-85
2022/10/21 08:57:28;;;;;;;10.70;7.00;;;15.40;99.90;;;;;;5073083;28;20043;-85
2022/10/21 08:59:54;;;;;;;11.15;7.75;;;15.40;99.90;;;;;;5039708;28;20028;-85
2022/10/21 09:02:34;;;;;;;11.10;6.95;;;15.50;99.90;;;;;;5056440;28;20028;-85
2022/10/21 09:05:28;;;;;;;12.25;7.03;;;15.50;99.90;;;;;;5088229;28;20028;-85
2022/10/21 09:08:02;;;;;;;13.23;7.07;;;15.50;99.90;;;;;;5092956;28;20080;-84
2022/10/21 09:10:41;;;;;;;11.93;6.65;;;15.70;99.90;;;;;;5093113;28;20418;-85
2022/10/21 09:13:39;;;;;;;15.68;7.43;;;15.60;99.90;;;;;;5092619;28;20496;-85
2022/10/21 09:16:18;;;;;;;12.13;6.85;;;15.60;99.90;;;;;;5054901;28;20028;-85
2022/10/21 09:19:18;;;;;;;11.68;6.75;;;15.70;99.90;;;;;;5094259;28;20380;-84
2022/10/21 09:22:03;;;;;;;11.68;6.10;;;15.70;99.90;;;;;;5060482;28;20028;-86
2022/10/21 09:24:36;;;;;;;8.32;5.35;;;15.70;99.90;;;;;;5092109;28;20028;-83
2022/10/21 09:27:04;;;;;;;9.48;5.50;;;15.80;99.90;;;;;;5091762;28;20024;-84
2022/10/21 09:29:36;;;;;;;9.05;5.00;;;15.80;99.90;;;;;;5092687;28;20020;-85
2022/10/21 09:32:08;;;;;;;7.13;4.18;;;15.90;99.90;;;;;;5092683;28;20028;-83
2022/10/21 09:35:04;;;;;;;9.32;4.88;;;15.90;99.90;;;;;;5092608;28;20032;-85
2022/10/21 09:37:42;;;;;;;10.77;4.70;;;16.00;99.90;;;;;;5092459;28;20028;-84
2022/10/21 09:40:19;;;;;;;8.57;4.03;;;15.90;99.90;;;;;;5092477;28;20035;-83
2022/10/21 09:42:48;;;;;;;9.80;4.32;;;16.00;99.90;;;;;;5091747;28;20012;-85
2022/10/21 09:45:23;;;;;;;7.40;4.40;;;16.00;99.90;;;;;;5075803;28;20108;-85
2022/10/21 09:48:12;;;;;;;8.98;4.18;;;16.00;99.90;;;;;;5092470;28;20024;-82
2022/10/21 09:50:38;;;;;;;7.90;4.05;;;16.00;99.90;;;;;;5092446;28;20016;-85
2022/10/21 09:53:10;;;;;;;20.23;5.30;;;16.10;99.90;;;;;;5093960;28;20468;-85
2022/10/21 09:55:39;;;;;;;9.85;3.88;;;16.00;99.90;;;;;;5092257;28;20027;-85
2022/10/21 09:58:04;;;;;;;7.88;4.05;;;15.90;99.90;;;;;;5092677;28;20085;-85
2022/10/21 10:00:43;;;;;;;7.50;3.92;;;16.10;99.90;;;;;;5092551;28;20020;-85
2022/10/21 10:03:09;;;;;;;7.78;4.00;;;16.00;99.90;;;;;;5092305;28;20123;-85
2022/10/21 10:05:45;;;;;;;9.38;4.50;;;16.00;99.90;;;;;;5063593;28;20587;-84
2022/10/21 10:08:40;;;;;;;7.90;4.15;;;16.00;99.90;;;;;;5093340;28;20380;-85
2022/10/21 10:11:09;;;;;;;7.45;4.20;;;16.10;99.90;;;;;;5092530;28;20433;-85
2022/10/21 10:13:36;;;;;;;8.93;4.63;;;16.20;99.90;;;;;;5091812;28;20044;-84
2022/10/21 10:16:16;;;;;;;9.48;4.85;;;16.20;99.90;;;;;;5093234;28;20028;-82
2022/10/21 10:18:43;;;;;;;12.90;5.30;;;16.30;99.90;;;;;;5092004;28;20020;-81
2022/10/21 10:21:13;;;;;;;10.30;4.82;;;16.30;99.90;;;;;;5091663;28;20383;-81
2022/10/21 10:23:48;;;;;;;8.80;4.45;;;16.40;99.90;;;;;;5091925;28;20088;-81
2022/10/21 10:26:36;;;;;;;13.82;4.95;;;16.50;99.90;;;;;;5091751;28;20555;-82
2022/10/21 10:29:26;;;;;;;7.40;4.20;;;16.50;99.90;;;;;;5091838;28;20342;-82
2022/10/21 10:32:00;;;;;;;11.93;4.43;;;16.60;99.90;;;;;;5091725;28;20032;-82
2022/10/21 10:34:42;;;;;;;7.70;4.15;;;16.70;99.90;;;;;;5075378;28;20118;-84
2022/10/21 10:37:23;;;;;;;12.35;4.32;;;16.70;99.90;;;;;;5092045;28;20028;-83
2022/10/21 10:39:55;;;;;;;8.68;4.13;;;16.80;99.90;;;;;;5092184;28;20021;-83
2022/10/21 10:42:25;;;;;;;10.77;4.82;;;16.90;99.90;;;;;;5093672;28;20024;-85
2022/10/21 10:44:54;;;;;;;8.35;4.00;;;17.00;99.90;;;;;;5091799;28;20468;-83
2022/10/21 10:47:29;;;;;;;9.23;4.03;;;17.00;99.90;;;;;;5092102;28;20077;-85
2022/10/21 10:49:55;;;;;;;8.23;5.13;;;17.00;99.90;;;;;;5074798;28;20028;-84
2022/10/21 10:52:25;;;;;;;9.38;4.55;;;17.00;99.90;;;;;;5054613;28;20032;-84
2022/10/21 10:55:27;;;;;;;9.98;5.15;;;17.10;99.90;;;;;;5073009;28;20020;-84
2022/10/21 10:57:55;;;;;;;9.07;4.22;;;17.20;99.90;;;;;;5011687;28;20076;-86
2022/10/21 11:00:22;;;;;;;11.85;4.90;;;17.30;99.90;;;;;;5073278;28;20440;-83
2022/10/21 11:03:05;;;;;;;8.45;4.30;;;17.30;99.90;;;;;;5087921;28;20061;-83
2022/10/21 11:05:38;;;;;;;9.18;3.97;;;17.30;99.90;;;;;;5093136;28;20480;-84
2022/10/21 11:08:20;;;;;;;8.23;4.57;;;17.30;99.90;;;;;;5095407;28;20052;-84
2022/10/21 11:10:52;;;;;;;7.22;3.95;;;17.30;99.90;;;;;;5086124;28;20373;-83
2022/10/21 11:13:20;;;;;;;11.27;4.32;;;17.30;99.90;;;;;;5074600;28;20056;-84
2022/10/21 11:16:23;;;;;;;13.13;4.32;;;17.40;99.90;;;;;;5074806;28;20020;-83
2022/10/21 11:19:10;;;;;;;8.18;4.88;;;17.50;99.90;;;;;;5076000;28;20357;-82
2022/10/21 11:21:47;;;;;;;9.73;3.75;;;17.60;99.90;;;;;;5075071;28;20023;-80
2022/10/21 11:24:22;;;;;;;8.93;4.43;;;17.70;99.90;;;;;;5093800;28;20024;-84
2022/10/21 11:26:58;;;;;;;6.88;3.83;;;17.80;99.90;;;;;;5096001;28;20384;-82
2022/10/21 11:29:35;;;;;;;9.02;3.90;;;17.90;99.90;;;;;;5095193;28;20077;-85
2022/10/21 11:32:19;;;;;;;6.53;4.03;;;18.00;99.90;;;;;;5095899;28;20028;-81
2022/10/21 11:35:08;;;;;;;6.53;3.53;;;18.10;99.90;;;;;;5094697;28;20031;-82
2022/10/21 11:38:04;;;;;;;9.10;3.85;;;18.30;99.90;;;;;;5076240;28;20024;-85
2022/10/21 11:40:56;;;;;;;6.05;3.33;;;18.40;99.90;;;;;;5074805;28;20021;-84
2022/10/21 11:44:07;;;;;;;9.85;3.80;;;18.60;99.90;;;;;;5074608;28;20455;-84
2022/10/21 11:47:01;;;;;;;9.02;3.78;;;18.90;99.90;;;;;;5074353;28;20024;-84
2022/10/21 11:49:33;;;;;;;;;;;19.30;99.90;;;;;;5074903;28;20024;-85
2022/10/21 11:52:29;;;;;;;5.40;3.08;;;19.90;99.90;;;;;;5074012;28;19989;-84
2022/10/21 11:55:33;;;;;;;6.43;2.45;;;20.70;99.90;;;;;;5074044;28;20039;-86
2022/10/21 11:58:31;;;;;;;6.90;1.92;;;21.40;99.90;;;;;;5074780;28;20366;-86
2022/10/21 12:01:32;;;;;;;5.68;2.00;;;22.00;99.90;;;;;;5074027;28;20020;-85
2022/10/21 12:04:19;;;;;;;8.15;2.50;;;22.40;99.50;;;;;;5073962;28;20502;-86
2022/10/21 12:07:00;;;;;;;4.95;1.77;;;23.00;97.50;;;;;;5066998;28;20037;-86
2022/10/21 12:09:35;;;;;;;6.07;1.80;;;23.40;96.60;;;;;;5075551;28;20021;-86
2022/10/21 12:12:04;;;;;;;7.20;1.63;;;23.50;94.60;;;;;;5073820;28;20043;-82
2022/10/21 12:14:47;;;;;;;6.85;1.90;;;23.60;93.40;;;;;;5073285;28;20032;-83
2022/10/21 12:17:21;;;;;;;4.18;1.60;;;23.80;92.00;;;;;;5073418;28;20024;-82
2022/10/21 12:20:02;;;;;;;7.65;1.67;;;24.30;91.00;;;;;;5073545;28;20024;-83
2022/10/21 12:22:30;;;;;;;7.78;1.70;;;24.60;89.20;;;;;;5078680;28;20111;-82
2022/10/21 12:25:11;;;;;;;4.40;1.52;;;24.80;86.40;;;;;;5093955;28;20016;-81
2022/10/21 12:27:50;;;;;;;4.85;2.03;;;24.70;81.20;;;;;;5093190;28;20081;-82
2022/10/21 12:30:20;;;;;;;5.40;1.52;;;24.60;79.50;;;;;;5093467;28;20020;-82
2022/10/21 12:33:03;;;;;;;5.05;1.60;;;24.50;78.20;;;;;;5093846;28;20035;-86
2022/10/21 12:35:49;;;;;;;6.18;1.70;;;24.40;76.90;;;;;;5093842;28;20563;-85
2022/10/21 12:38:22;;;;;;;5.95;1.73;;;24.40;76.90;;;;;;5093448;28;20016;-83
2022/10/21 12:40:49;;;;;;;6.03;2.13;;;24.50;76.90;;;;;;5093878;28;20035;-83
2022/10/21 12:43:27;;;;;;;4.32;1.60;;;24.80;75.70;;;;;;5094950;28;20491;-84
2022/10/21 12:46:08;;;;;;;4.53;1.60;;;25.00;74.70;;;;;;5094890;28;20027;-85
2022/10/21 12:48:44;;;;;;;4.95;1.30;;;25.20;73.30;;;;;;5093594;28;20046;-86
2022/10/21 12:51:31;;;;;;;2.80;1.33;;;25.30;72.40;;;;;;5093322;28;20035;-85
2022/10/21 12:54:09;;;;;;;5.68;1.98;;;25.20;71.20;;;;;;5093123;28;20274;-84
2022/10/21 12:56:47;;;;;;;3.83;1.42;;;25.20;70.50;;;;;;5093294;28;20012;-82